Terminal Aerodrome Forecast
Issued by NWS

Home | Current Version | Previous Version | Text Only | Print | Product List | Glossary On
Versions: 1 2 3 4 5 6 7 8 9 10 11 12
000
FTUS45 KRIW 200500
TAFCOD
TAF
KCOD 200527Z 2006/2106 26008KT P6SM VCSH SCT070 BKN110
     FM201100 21007KT P6SM SCT090 BKN150
     FM202100 VRB11KT P6SM VCTS SCT070CB BKN100
     FM210300 VRB06KT P6SM VCSH OVC070
      AMD LTD TO CLD VIS AND WIND=

USA.gov is the U.S. government's official web portal to all federal, state and local government web resources and services.